Aviation Digital Data Service (ADDS)

Output produced by METARs form (1206 UTC 19 January 2019)
found at http://www.aviationweather.gov/metar/data/
 
METAR text: EICK 191200Z 31008KT 9999 FEW018 07/05 Q1006 NOSIG
Conditions at: EICK (CORK ARPT/CORCAI, IE) observed 1200 UTC 19 January 2019
Temperature: 7.0°C (45°F)
Dewpoint: 5.0°C (41°F) [RH = 87%]
Pressure (altimeter): 29.70 inches Hg (1006.0 mb)
Winds: from the NW (310 degrees) at 9 MPH (8 knots; 4.1 m/s)
Visibility: 6 or more miles (10+ km)
Ceiling: at least 12,000 feet AGL
Clouds: few clouds at 1800 feet AGL
Weather: no significant weather observed at this time

METAR text: EICK 191130Z 30008KT 9999 FEW012 07/05 Q1006 NOSIG
Conditions at: EICK (CORK ARPT/CORCAI, IE) observed 1130 UTC 19 January 2019
Temperature: 7.0°C (45°F)
Dewpoint: 5.0°C (41°F) [RH = 87%]
Pressure (altimeter): 29.70 inches Hg (1006.0 mb)
Winds: from the WNW (300 degrees) at 9 MPH (8 knots; 4.1 m/s)
Visibility: 6 or more miles (10+ km)
Ceiling: at least 12,000 feet AGL
Clouds: few clouds at 1200 feet AGL
Weather: no significant weather observed at this time

METAR text: EICK 191100Z 30006KT 9999 FEW008 FEW018CB 06/05 Q1006 NOSIG
Conditions at: EICK (CORK ARPT/CORCAI, IE) observed 1100 UTC 19 January 2019
Temperature: 6.0°C (43°F)
Dewpoint: 5.0°C (41°F) [RH = 93%]
Pressure (altimeter): 29.70 inches Hg (1006.0 mb)
Winds: from the WNW (300 degrees) at 7 MPH (6 knots; 3.1 m/s)
Visibility: 6 or more miles (10+ km)
Ceiling: at least 12,000 feet AGL
Clouds: few clouds at 800 feet AGL
few clouds at 1800 feet AGL
Weather: no significant weather observed at this time

METAR text: EICK 191030Z 30006KT 9999 FEW008 FEW018CB 06/04 Q1005 NOSIG
Conditions at: EICK (CORK ARPT/CORCAI, IE) observed 1030 UTC 19 January 2019
Temperature: 6.0°C (43°F)
Dewpoint: 4.0°C (39°F) [RH = 87%]
Pressure (altimeter): 29.68 inches Hg (1005.0 mb)
Winds: from the WNW (300 degrees) at 7 MPH (6 knots; 3.1 m/s)
Visibility: 6 or more miles (10+ km)
Ceiling: at least 12,000 feet AGL
Clouds: few clouds at 800 feet AGL
few clouds at 1800 feet AGL
Weather: no significant weather observed at this time

METAR text: EICK 191000Z 30007KT 9999 FEW008 FEW018CB 05/04 Q1005 NOSIG
Conditions at: EICK (CORK ARPT/CORCAI, IE) observed 1000 UTC 19 January 2019
Temperature: 5.0°C (41°F)
Dewpoint: 4.0°C (39°F) [RH = 93%]
Pressure (altimeter): 29.68 inches Hg (1005.0 mb)
Winds: from the WNW (300 degrees) at 8 MPH (7 knots; 3.6 m/s)
Visibility: 6 or more miles (10+ km)
Ceiling: at least 12,000 feet AGL
Clouds: few clouds at 800 feet AGL
few clouds at 1800 feet AGL
Weather: no significant weather observed at this time

METAR text: EICK 190930Z 30008KT 9999 FEW002 05/04 Q1005 NOSIG
Conditions at: EICK (CORK ARPT/CORCAI, IE) observed 0930 UTC 19 January 2019
Temperature: 5.0°C (41°F)
Dewpoint: 4.0°C (39°F) [RH = 93%]
Pressure (altimeter): 29.68 inches Hg (1005.0 mb)
Winds: from the WNW (300 degrees) at 9 MPH (8 knots; 4.1 m/s)
Visibility: 6 or more miles (10+ km)
Ceiling: at least 12,000 feet AGL
Clouds: few clouds at 200 feet AGL
Weather: no significant weather observed at this time

METAR text: EICK 190900Z 30007KT 5000 MIFG FEW001 04/04 Q1005 BECMG 9999
Conditions at: EICK (CORK ARPT/CORCAI, IE) observed 0900 UTC 19 January 2019
Temperature: 4.0°C (39°F)
Dewpoint: 4.0°C (39°F) [RH = 100%]
Pressure (altimeter): 29.68 inches Hg (1005.0 mb)
Winds: from the WNW (300 degrees) at 8 MPH (7 knots; 3.6 m/s)
Visibility: 3 miles ( 5 km)
Ceiling: at least 12,000 feet AGL
Clouds: few clouds at 100 feet AGL
Weather: MIFG  (shallow fog)

METAR text: EICK 190830Z 30007KT 4000 MIFG FEW001 04/04 Q1004 TEMPO 1500
Conditions at: EICK (CORK ARPT/CORCAI, IE) observed 0830 UTC 19 January 2019
Temperature: 4.0°C (39°F)
Dewpoint: 4.0°C (39°F) [RH = 100%]
Pressure (altimeter): 29.65 inches Hg (1004.0 mb)
Winds: from the WNW (300 degrees) at 8 MPH (7 knots; 3.6 m/s)
Visibility: 2.49 miles (4.01 km)
Ceiling: at least 12,000 feet AGL
Clouds: few clouds at 100 feet AGL
Weather: MIFG  (shallow fog)

METAR text: EICK 190800Z 30007KT 8000 MIFG FEW001 04/04 Q1004 NOSIG
Conditions at: EICK (CORK ARPT/CORCAI, IE) observed 0800 UTC 19 January 2019
Temperature: 4.0°C (39°F)
Dewpoint: 4.0°C (39°F) [RH = 100%]
Pressure (altimeter): 29.65 inches Hg (1004.0 mb)
Winds: from the WNW (300 degrees) at 8 MPH (7 knots; 3.6 m/s)
Visibility: 5 miles ( 8 km)
Ceiling: at least 12,000 feet AGL
Clouds: few clouds at 100 feet AGL
Weather: MIFG  (shallow fog)

METAR text: EICK 190730Z 29007KT 9999 FEW001 04/04 Q1004 NOSIG
Conditions at: EICK (CORK ARPT/CORCAI, IE) observed 0730 UTC 19 January 2019
Temperature: 4.0°C (39°F)
Dewpoint: 4.0°C (39°F) [RH = 100%]
Pressure (altimeter): 29.65 inches Hg (1004.0 mb)
Winds: from the WNW (290 degrees) at 8 MPH (7 knots; 3.6 m/s)
Visibility: 6 or more miles (10+ km)
Ceiling: at least 12,000 feet AGL
Clouds: few clouds at 100 feet AGL
Weather: no significant weather observed at this time

METAR text: EICK 190700Z 30007KT 9999 FEW018 05/04 Q1004 NOSIG
Conditions at: EICK (CORK ARPT/CORCAI, IE) observed 0700 UTC 19 January 2019
Temperature: 5.0°C (41°F)
Dewpoint: 4.0°C (39°F) [RH = 93%]
Pressure (altimeter): 29.65 inches Hg (1004.0 mb)
Winds: from the WNW (300 degrees) at 8 MPH (7 knots; 3.6 m/s)
Visibility: 6 or more miles (10+ km)
Ceiling: at least 12,000 feet AGL
Clouds: few clouds at 1800 feet AGL
Weather: no significant weather observed at this time

METAR text: EICK 190630Z 30005KT 9999 FEW030 05/04 Q1004 NOSIG
Conditions at: EICK (CORK ARPT/CORCAI, IE) observed 0630 UTC 19 January 2019
Temperature: 5.0°C (41°F)
Dewpoint: 4.0°C (39°F) [RH = 93%]
Pressure (altimeter): 29.65 inches Hg (1004.0 mb)
Winds: from the WNW (300 degrees) at 6 MPH (5 knots; 2.6 m/s)
Visibility: 6 or more miles (10+ km)
Ceiling: at least 12,000 feet AGL
Clouds: few clouds at 3000 feet AGL
Weather: no significant weather observed at this time

METAR text: EICK 190600Z 31006KT 9999 FEW040 05/04 Q1003 NOSIG
Conditions at: EICK (CORK ARPT/CORCAI, IE) observed 0600 UTC 19 January 2019
Temperature: 5.0°C (41°F)
Dewpoint: 4.0°C (39°F) [RH = 93%]
Pressure (altimeter): 29.62 inches Hg (1003.0 mb)
Winds: from the NW (310 degrees) at 7 MPH (6 knots; 3.1 m/s)
Visibility: 6 or more miles (10+ km)
Ceiling: at least 12,000 feet AGL
Clouds: few clouds at 4000 feet AGL
Weather: no significant weather observed at this time

METAR text: EICK 190530Z 30006KT 9999 FEW045 05/04 Q1003 NOSIG
Conditions at: EICK (CORK ARPT/CORCAI, IE) observed 0530 UTC 19 January 2019
Temperature: 5.0°C (41°F)
Dewpoint: 4.0°C (39°F) [RH = 93%]
Pressure (altimeter): 29.62 inches Hg (1003.0 mb)
Winds: from the WNW (300 degrees) at 7 MPH (6 knots; 3.1 m/s)
Visibility: 6 or more miles (10+ km)
Ceiling: at least 12,000 feet AGL
Clouds: few clouds at 4500 feet AGL
Weather: no significant weather observed at this time

METAR text: EICK 190500Z 29005KT 9999 FEW045 05/04 Q1003 NOSIG
Conditions at: EICK (CORK ARPT/CORCAI, IE) observed 0500 UTC 19 January 2019
Temperature: 5.0°C (41°F)
Dewpoint: 4.0°C (39°F) [RH = 93%]
Pressure (altimeter): 29.62 inches Hg (1003.0 mb)
Winds: from the WNW (290 degrees) at 6 MPH (5 knots; 2.6 m/s)
Visibility: 6 or more miles (10+ km)
Ceiling: at least 12,000 feet AGL
Clouds: few clouds at 4500 feet AGL
Weather: no significant weather observed at this time

METAR text: EICK 190430Z 28005KT 9999 FEW045 05/04 Q1003 NOSIG
Conditions at: EICK (CORK ARPT/CORCAI, IE) observed 0430 UTC 19 January 2019
Temperature: 5.0°C (41°F)
Dewpoint: 4.0°C (39°F) [RH = 93%]
Pressure (altimeter): 29.62 inches Hg (1003.0 mb)
Winds: from the W (280 degrees) at 6 MPH (5 knots; 2.6 m/s)
Visibility: 6 or more miles (10+ km)
Ceiling: at least 12,000 feet AGL
Clouds: few clouds at 4500 feet AGL
Weather: no significant weather observed at this time

METAR text: EICK 190400Z 29005KT 9999 FEW045 05/04 Q1003 NOSIG
Conditions at: EICK (CORK ARPT/CORCAI, IE) observed 0400 UTC 19 January 2019
Temperature: 5.0°C (41°F)
Dewpoint: 4.0°C (39°F) [RH = 93%]
Pressure (altimeter): 29.62 inches Hg (1003.0 mb)
Winds: from the WNW (290 degrees) at 6 MPH (5 knots; 2.6 m/s)
Visibility: 6 or more miles (10+ km)
Ceiling: at least 12,000 feet AGL
Clouds: few clouds at 4500 feet AGL
Weather: no significant weather observed at this time

METAR text: EICK 190330Z 27006KT 9999 FEW045 05/04 Q1003 NOSIG
Conditions at: EICK (CORK ARPT/CORCAI, IE) observed 0330 UTC 19 January 2019
Temperature: 5.0°C (41°F)
Dewpoint: 4.0°C (39°F) [RH = 93%]
Pressure (altimeter): 29.62 inches Hg (1003.0 mb)
Winds: from the W (270 degrees) at 7 MPH (6 knots; 3.1 m/s)
Visibility: 6 or more miles (10+ km)
Ceiling: at least 12,000 feet AGL
Clouds: few clouds at 4500 feet AGL
Weather: no significant weather observed at this time

METAR text: EICK 190300Z 30004KT 9999 FEW018 05/04 Q1003 NOSIG
Conditions at: EICK (CORK ARPT/CORCAI, IE) observed 0300 UTC 19 January 2019
Temperature: 5.0°C (41°F)
Dewpoint: 4.0°C (39°F) [RH = 93%]
Pressure (altimeter): 29.62 inches Hg (1003.0 mb)
Winds: from the WNW (300 degrees) at 5 MPH (4 knots; 2.1 m/s)
Visibility: 6 or more miles (10+ km)
Ceiling: at least 12,000 feet AGL
Clouds: few clouds at 1800 feet AGL
Weather: no significant weather observed at this time

METAR text: EICK 190230Z 29006KT 9999 FEW018 SCT110 05/04 Q1003 NOSIG
Conditions at: EICK (CORK ARPT/CORCAI, IE) observed 0230 UTC 19 January 2019
Temperature: 5.0°C (41°F)
Dewpoint: 4.0°C (39°F) [RH = 93%]
Pressure (altimeter): 29.62 inches Hg (1003.0 mb)
Winds: from the WNW (290 degrees) at 7 MPH (6 knots; 3.1 m/s)
Visibility: 6 or more miles (10+ km)
Ceiling: at least 12,000 feet AGL
Clouds: few clouds at 1800 feet AGL
scattered clouds at 11000 feet AGL
Weather: no significant weather observed at this time

METAR text: EICK 190200Z 29005KT 260V320 9999 FEW018 SCT110 05/05 Q1003 NOSIG
Conditions at: EICK (CORK ARPT/CORCAI, IE) observed 0200 UTC 19 January 2019
Temperature: 5.0°C (41°F)
Dewpoint: 5.0°C (41°F) [RH = 100%]
Pressure (altimeter): 29.62 inches Hg (1003.0 mb)
Winds: from the WNW (290 degrees) at 6 MPH (5 knots; 2.6 m/s)
Visibility: 6 or more miles (10+ km)
Ceiling: at least 12,000 feet AGL
Clouds: few clouds at 1800 feet AGL
scattered clouds at 11000 feet AGL
Weather: no significant weather observed at this time

METAR text: EICK 190130Z 25006KT 9999 FEW030 SCT100 04/04 Q1003 NOSIG
Conditions at: EICK (CORK ARPT/CORCAI, IE) observed 0130 UTC 19 January 2019
Temperature: 4.0°C (39°F)
Dewpoint: 4.0°C (39°F) [RH = 100%]
Pressure (altimeter): 29.62 inches Hg (1003.0 mb)
Winds: from the WSW (250 degrees) at 7 MPH (6 knots; 3.1 m/s)
Visibility: 6 or more miles (10+ km)
Ceiling: at least 12,000 feet AGL
Clouds: few clouds at 3000 feet AGL
scattered clouds at 10000 feet AGL
Weather: no significant weather observed at this time

METAR text: EICK 190100Z 25006KT 9999 FEW030 SCT160 05/04 Q1003 NOSIG
Conditions at: EICK (CORK ARPT/CORCAI, IE) observed 0100 UTC 19 January 2019
Temperature: 5.0°C (41°F)
Dewpoint: 4.0°C (39°F) [RH = 93%]
Pressure (altimeter): 29.62 inches Hg (1003.0 mb)
Winds: from the WSW (250 degrees) at 7 MPH (6 knots; 3.1 m/s)
Visibility: 6 or more miles (10+ km)
Ceiling: at least 12,000 feet AGL
Clouds: few clouds at 3000 feet AGL
scattered clouds at 16000 feet AGL
Weather: no significant weather observed at this time

METAR text: EICK 190030Z 25007KT 9999 FEW030 SCT170 04/04 Q1003 NOSIG
Conditions at: EICK (CORK ARPT/CORCAI, IE) observed 0030 UTC 19 January 2019
Temperature: 4.0°C (39°F)
Dewpoint: 4.0°C (39°F) [RH = 100%]
Pressure (altimeter): 29.62 inches Hg (1003.0 mb)
Winds: from the WSW (250 degrees) at 8 MPH (7 knots; 3.6 m/s)
Visibility: 6 or more miles (10+ km)
Ceiling: at least 12,000 feet AGL
Clouds: few clouds at 3000 feet AGL
scattered clouds at 17000 feet AGL
Weather: no significant weather observed at this time

METAR text: EICK 190000Z 25007KT 9999 FEW030 SCT170 05/04 Q1004 NOSIG
Conditions at: EICK (CORK ARPT/CORCAI, IE) observed 0000 UTC 19 January 2019
Temperature: 5.0°C (41°F)
Dewpoint: 4.0°C (39°F) [RH = 93%]
Pressure (altimeter): 29.65 inches Hg (1004.0 mb)
Winds: from the WSW (250 degrees) at 8 MPH (7 knots; 3.6 m/s)
Visibility: 6 or more miles (10+ km)
Ceiling: at least 12,000 feet AGL
Clouds: few clouds at 3000 feet AGL
scattered clouds at 17000 feet AGL
Weather: no significant weather observed at this time

METAR text: EICK 182330Z 24004KT 9999 FEW025 SCT060 04/04 Q1004 NOSIG
Conditions at: EICK (CORK ARPT/CORCAI, IE) observed 2330 UTC 18 January 2019
Temperature: 4.0°C (39°F)
Dewpoint: 4.0°C (39°F) [RH = 100%]
Pressure (altimeter): 29.65 inches Hg (1004.0 mb)
Winds: from the WSW (240 degrees) at 5 MPH (4 knots; 2.1 m/s)
Visibility: 6 or more miles (10+ km)
Ceiling: at least 12,000 feet AGL
Clouds: few clouds at 2500 feet AGL
scattered clouds at 6000 feet AGL
Weather: no significant weather observed at this time

METAR text: EICK 182300Z 23005KT 9999 FEW018CB SCT070 BKN120 05/04 Q1004 NOSIG
Conditions at: EICK (CORK ARPT/CORCAI, IE) observed 2300 UTC 18 January 2019
Temperature: 5.0°C (41°F)
Dewpoint: 4.0°C (39°F) [RH = 93%]
Pressure (altimeter): 29.65 inches Hg (1004.0 mb)
Winds: from the SW (230 degrees) at 6 MPH (5 knots; 2.6 m/s)
Visibility: 6 or more miles (10+ km)
Ceiling: 12000 feet AGL
Clouds: few clouds at 1800 feet AGL
scattered clouds at 7000 feet AGL
broken clouds at 12000 feet AGL
Weather: no significant weather observed at this time

METAR text: EICK 182230Z 24005KT 9999 FEW018CB SCT070 BKN120 05/05 Q1004 NOSIG
Conditions at: EICK (CORK ARPT/CORCAI, IE) observed 2230 UTC 18 January 2019
Temperature: 5.0°C (41°F)
Dewpoint: 5.0°C (41°F) [RH = 100%]
Pressure (altimeter): 29.65 inches Hg (1004.0 mb)
Winds: from the WSW (240 degrees) at 6 MPH (5 knots; 2.6 m/s)
Visibility: 6 or more miles (10+ km)
Ceiling: 12000 feet AGL
Clouds: few clouds at 1800 feet AGL
scattered clouds at 7000 feet AGL
broken clouds at 12000 feet AGL
Weather: no significant weather observed at this time

METAR text: EICK 182200Z 24006KT 9999 FEW018CB BKN120 06/05 Q1003 NOSIG
Conditions at: EICK (CORK ARPT/CORCAI, IE) observed 2200 UTC 18 January 2019
Temperature: 6.0°C (43°F)
Dewpoint: 5.0°C (41°F) [RH = 93%]
Pressure (altimeter): 29.62 inches Hg (1003.0 mb)
Winds: from the WSW (240 degrees) at 7 MPH (6 knots; 3.1 m/s)
Visibility: 6 or more miles (10+ km)
Ceiling: 12000 feet AGL
Clouds: few clouds at 1800 feet AGL
broken clouds at 12000 feet AGL
Weather: no significant weather observed at this time

METAR text: EICK 182130Z 25005KT 9999 FEW018CB SCT050 BKN110 06/05 Q1003 NOSIG
Conditions at: EICK (CORK ARPT/CORCAI, IE) observed 2130 UTC 18 January 2019
Temperature: 6.0°C (43°F)
Dewpoint: 5.0°C (41°F) [RH = 93%]
Pressure (altimeter): 29.62 inches Hg (1003.0 mb)
Winds: from the WSW (250 degrees) at 6 MPH (5 knots; 2.6 m/s)
Visibility: 6 or more miles (10+ km)
Ceiling: 11000 feet AGL
Clouds: few clouds at 1800 feet AGL
scattered clouds at 5000 feet AGL
broken clouds at 11000 feet AGL
Weather: no significant weather observed at this time

METAR text: EICK 182100Z 25007KT 9999 FEW018CB BKN110 06/05 Q1003 NOSIG
Conditions at: EICK (CORK ARPT/CORCAI, IE) observed 2100 UTC 18 January 2019
Temperature: 6.0°C (43°F)
Dewpoint: 5.0°C (41°F) [RH = 93%]
Pressure (altimeter): 29.62 inches Hg (1003.0 mb)
Winds: from the WSW (250 degrees) at 8 MPH (7 knots; 3.6 m/s)
Visibility: 6 or more miles (10+ km)
Ceiling: 11000 feet AGL
Clouds: few clouds at 1800 feet AGL
broken clouds at 11000 feet AGL
Weather: no significant weather observed at this time

METAR text: EICK 182030Z 25007KT 9999 -SHRA FEW018CB BKN070 BKN110 06/05 Q1003 NOSIG
Conditions at: EICK (CORK ARPT/CORCAI, IE) observed 2030 UTC 18 January 2019
Temperature: 6.0°C (43°F)
Dewpoint: 5.0°C (41°F) [RH = 93%]
Pressure (altimeter): 29.62 inches Hg (1003.0 mb)
Winds: from the WSW (250 degrees) at 8 MPH (7 knots; 3.6 m/s)
Visibility: 6 or more miles (10+ km)
Ceiling: 7000 feet AGL
Clouds: few clouds at 1800 feet AGL
broken clouds at 7000 feet AGL
broken clouds at 11000 feet AGL
Weather: -SHRA  (light rain showers)

METAR text: EICK 182000Z 24006KT 9999 FEW018CB SCT070 BKN110 06/05 Q1003 NOSIG
Conditions at: EICK (CORK ARPT/CORCAI, IE) observed 2000 UTC 18 January 2019
Temperature: 6.0°C (43°F)
Dewpoint: 5.0°C (41°F) [RH = 93%]
Pressure (altimeter): 29.62 inches Hg (1003.0 mb)
Winds: from the WSW (240 degrees) at 7 MPH (6 knots; 3.1 m/s)
Visibility: 6 or more miles (10+ km)
Ceiling: 11000 feet AGL
Clouds: few clouds at 1800 feet AGL
scattered clouds at 7000 feet AGL
broken clouds at 11000 feet AGL
Weather: no significant weather observed at this time

METAR text: EICK 181930Z 23006KT 9999 FEW018CB SCT070 BKN110 06/05 Q1003 NOSIG
Conditions at: EICK (CORK ARPT/CORCAI, IE) observed 1930 UTC 18 January 2019
Temperature: 6.0°C (43°F)
Dewpoint: 5.0°C (41°F) [RH = 93%]
Pressure (altimeter): 29.62 inches Hg (1003.0 mb)
Winds: from the SW (230 degrees) at 7 MPH (6 knots; 3.1 m/s)
Visibility: 6 or more miles (10+ km)
Ceiling: 11000 feet AGL
Clouds: few clouds at 1800 feet AGL
scattered clouds at 7000 feet AGL
broken clouds at 11000 feet AGL
Weather: no significant weather observed at this time

METAR text: EICK 181900Z 24006KT 9999 FEW018CB BKN080 06/06 Q1003 NOSIG
Conditions at: EICK (CORK ARPT/CORCAI, IE) observed 1900 UTC 18 January 2019
Temperature: 6.0°C (43°F)
Dewpoint: 6.0°C (43°F) [RH = 100%]
Pressure (altimeter): 29.62 inches Hg (1003.0 mb)
Winds: from the WSW (240 degrees) at 7 MPH (6 knots; 3.1 m/s)
Visibility: 6 or more miles (10+ km)
Ceiling: 8000 feet AGL
Clouds: few clouds at 1800 feet AGL
broken clouds at 8000 feet AGL
Weather: no significant weather observed at this time

METAR text: EICK 181830Z 23007KT 9999 FEW018CB BKN080 06/06 Q1003 NOSIG
Conditions at: EICK (CORK ARPT/CORCAI, IE) observed 1830 UTC 18 January 2019
Temperature: 6.0°C (43°F)
Dewpoint: 6.0°C (43°F) [RH = 100%]
Pressure (altimeter): 29.62 inches Hg (1003.0 mb)
Winds: from the SW (230 degrees) at 8 MPH (7 knots; 3.6 m/s)
Visibility: 6 or more miles (10+ km)
Ceiling: 8000 feet AGL
Clouds: few clouds at 1800 feet AGL
broken clouds at 8000 feet AGL
Weather: no significant weather observed at this time

METAR text: EICK 181800Z 23007KT 9999 FEW012 FEW018CB BKN060 07/06 Q1003 TEMPO 5000 BKN012
Conditions at: EICK (CORK ARPT/CORCAI, IE) observed 1800 UTC 18 January 2019
Temperature: 7.0°C (45°F)
Dewpoint: 6.0°C (43°F) [RH = 93%]
Pressure (altimeter): 29.62 inches Hg (1003.0 mb)
Winds: from the SW (230 degrees) at 8 MPH (7 knots; 3.6 m/s)
Visibility: 6 or more miles (10+ km)
Ceiling: 6000 feet AGL
Clouds: few clouds at 1200 feet AGL
few clouds at 1800 feet AGL
broken clouds at 6000 feet AGL
Weather: no significant weather observed at this time

METAR text: EICK 181730Z 21006KT 9999 -SHRA FEW012 FEW018CB BKN060 07/06 Q1003 TEMPO 5000 BKN012
Conditions at: EICK (CORK ARPT/CORCAI, IE) observed 1730 UTC 18 January 2019
Temperature: 7.0°C (45°F)
Dewpoint: 6.0°C (43°F) [RH = 93%]
Pressure (altimeter): 29.62 inches Hg (1003.0 mb)
Winds: from the SSW (210 degrees) at 7 MPH (6 knots; 3.1 m/s)
Visibility: 6 or more miles (10+ km)
Ceiling: 6000 feet AGL
Clouds: few clouds at 1200 feet AGL
few clouds at 1800 feet AGL
broken clouds at 6000 feet AGL
Weather: -SHRA  (light rain showers)

METAR text: EICK 181700Z 22005KT 9999 FEW014 FEW018CB BKN060 07/06 Q1003 TEMPO 5000 BKN012
Conditions at: EICK (CORK ARPT/CORCAI, IE) observed 1700 UTC 18 January 2019
Temperature: 7.0°C (45°F)
Dewpoint: 6.0°C (43°F) [RH = 93%]
Pressure (altimeter): 29.62 inches Hg (1003.0 mb)
Winds: from the SW (220 degrees) at 6 MPH (5 knots; 2.6 m/s)
Visibility: 6 or more miles (10+ km)
Ceiling: 6000 feet AGL
Clouds: few clouds at 1400 feet AGL
few clouds at 1800 feet AGL
broken clouds at 6000 feet AGL
Weather: no significant weather observed at this time

METAR text: EICK 181630Z 21005KT 9999 FEW014 FEW018CB BKN070 07/06 Q1004 TEMPO 5000 BKN012
Conditions at: EICK (CORK ARPT/CORCAI, IE) observed 1630 UTC 18 January 2019
Temperature: 7.0°C (45°F)
Dewpoint: 6.0°C (43°F) [RH = 93%]
Pressure (altimeter): 29.65 inches Hg (1004.0 mb)
Winds: from the SSW (210 degrees) at 6 MPH (5 knots; 2.6 m/s)
Visibility: 6 or more miles (10+ km)
Ceiling: 7000 feet AGL
Clouds: few clouds at 1400 feet AGL
few clouds at 1800 feet AGL
broken clouds at 7000 feet AGL
Weather: no significant weather observed at this time

METAR text: EICK 181600Z 23006KT 9999 FEW015 FEW018CB BKN080 07/06 Q1004 NOSIG
Conditions at: EICK (CORK ARPT/CORCAI, IE) observed 1600 UTC 18 January 2019
Temperature: 7.0°C (45°F)
Dewpoint: 6.0°C (43°F) [RH = 93%]
Pressure (altimeter): 29.65 inches Hg (1004.0 mb)
Winds: from the SW (230 degrees) at 7 MPH (6 knots; 3.1 m/s)
Visibility: 6 or more miles (10+ km)
Ceiling: 8000 feet AGL
Clouds: few clouds at 1500 feet AGL
few clouds at 1800 feet AGL
broken clouds at 8000 feet AGL
Weather: no significant weather observed at this time

METAR text: EICK 181530Z 22007KT 9999 FEW015 FEW018CB BKN100 07/06 Q1004 NOSIG
Conditions at: EICK (CORK ARPT/CORCAI, IE) observed 1530 UTC 18 January 2019
Temperature: 7.0°C (45°F)
Dewpoint: 6.0°C (43°F) [RH = 93%]
Pressure (altimeter): 29.65 inches Hg (1004.0 mb)
Winds: from the SW (220 degrees) at 8 MPH (7 knots; 3.6 m/s)
Visibility: 6 or more miles (10+ km)
Ceiling: 10000 feet AGL
Clouds: few clouds at 1500 feet AGL
few clouds at 1800 feet AGL
broken clouds at 10000 feet AGL
Weather: no significant weather observed at this time

METAR text: EICK 181500Z 23006KT 9999 FEW015 FEW018CB SCT090 07/06 Q1004 NOSIG
Conditions at: EICK (CORK ARPT/CORCAI, IE) observed 1500 UTC 18 January 2019
Temperature: 7.0°C (45°F)
Dewpoint: 6.0°C (43°F) [RH = 93%]
Pressure (altimeter): 29.65 inches Hg (1004.0 mb)
Winds: from the SW (230 degrees) at 7 MPH (6 knots; 3.1 m/s)
Visibility: 6 or more miles (10+ km)
Ceiling: at least 12,000 feet AGL
Clouds: few clouds at 1500 feet AGL
few clouds at 1800 feet AGL
scattered clouds at 9000 feet AGL
Weather: no significant weather observed at this time

METAR text: EICK 181430Z 23007KT 9999 FEW015 FEW018CB BKN090 08/06 Q1004 NOSIG
Conditions at: EICK (CORK ARPT/CORCAI, IE) observed 1430 UTC 18 January 2019
Temperature: 8.0°C (46°F)
Dewpoint: 6.0°C (43°F) [RH = 87%]
Pressure (altimeter): 29.65 inches Hg (1004.0 mb)
Winds: from the SW (230 degrees) at 8 MPH (7 knots; 3.6 m/s)
Visibility: 6 or more miles (10+ km)
Ceiling: 9000 feet AGL
Clouds: few clouds at 1500 feet AGL
few clouds at 1800 feet AGL
broken clouds at 9000 feet AGL
Weather: no significant weather observed at this time

METAR text: EICK 181400Z 24007KT 210V280 9999 FEW015 FEW018CB SCT035 07/06 Q1004 NOSIG
Conditions at: EICK (CORK ARPT/CORCAI, IE) observed 1400 UTC 18 January 2019
Temperature: 7.0°C (45°F)
Dewpoint: 6.0°C (43°F) [RH = 93%]
Pressure (altimeter): 29.65 inches Hg (1004.0 mb)
Winds: from the WSW (240 degrees) at 8 MPH (7 knots; 3.6 m/s)
Visibility: 6 or more miles (10+ km)
Ceiling: at least 12,000 feet AGL
Clouds: few clouds at 1500 feet AGL
few clouds at 1800 feet AGL
scattered clouds at 3500 feet AGL
Weather: no significant weather observed at this time

METAR text: EICK 181330Z 25009KT 9999 FEW010 FEW018CB SCT035 08/05 Q1004 NOSIG
Conditions at: EICK (CORK ARPT/CORCAI, IE) observed 1330 UTC 18 January 2019
Temperature: 8.0°C (46°F)
Dewpoint: 5.0°C (41°F) [RH = 81%]
Pressure (altimeter): 29.65 inches Hg (1004.0 mb)
Winds: from the WSW (250 degrees) at 10 MPH (9 knots; 4.6 m/s)
Visibility: 6 or more miles (10+ km)
Ceiling: at least 12,000 feet AGL
Clouds: few clouds at 1000 feet AGL
few clouds at 1800 feet AGL
scattered clouds at 3500 feet AGL
Weather: no significant weather observed at this time

METAR text: EICK 181300Z 24009KT 9999 FEW008 FEW018CB 08/06 Q1004 NOSIG
Conditions at: EICK (CORK ARPT/CORCAI, IE) observed 1300 UTC 18 January 2019
Temperature: 8.0°C (46°F)
Dewpoint: 6.0°C (43°F) [RH = 87%]
Pressure (altimeter): 29.65 inches Hg (1004.0 mb)
Winds: from the WSW (240 degrees) at 10 MPH (9 knots; 4.6 m/s)
Visibility: 6 or more miles (10+ km)
Ceiling: at least 12,000 feet AGL
Clouds: few clouds at 800 feet AGL
few clouds at 1800 feet AGL
Weather: no significant weather observed at this time

METAR text: EICK 181230Z 23008KT 9999 FEW015 FEW018CB 08/06 Q1005 NOSIG
Conditions at: EICK (CORK ARPT/CORCAI, IE) observed 1230 UTC 18 January 2019
Temperature: 8.0°C (46°F)
Dewpoint: 6.0°C (43°F) [RH = 87%]
Pressure (altimeter): 29.68 inches Hg (1005.0 mb)
Winds: from the SW (230 degrees) at 9 MPH (8 knots; 4.1 m/s)
Visibility: 6 or more miles (10+ km)
Ceiling: at least 12,000 feet AGL
Clouds: few clouds at 1500 feet AGL
few clouds at 1800 feet AGL
Weather: no significant weather observed at this time

METAR text: EICK 181200Z 23009KT 9999 FEW018CB SCT045 08/06 Q1005 NOSIG
Conditions at: EICK (CORK ARPT/CORCAI, IE) observed 1200 UTC 18 January 2019
Temperature: 8.0°C (46°F)
Dewpoint: 6.0°C (43°F) [RH = 87%]
Pressure (altimeter): 29.68 inches Hg (1005.0 mb)
Winds: from the SW (230 degrees) at 10 MPH (9 knots; 4.6 m/s)
Visibility: 6 or more miles (10+ km)
Ceiling: at least 12,000 feet AGL
Clouds: few clouds at 1800 feet AGL
scattered clouds at 4500 feet AGL
Weather: no significant weather observed at this time

METAR text: EICK 181130Z 23008KT 9999 FEW017 SCT050 08/06 Q1005 NOSIG
Conditions at: EICK (CORK ARPT/CORCAI, IE) observed 1130 UTC 18 January 2019
Temperature: 8.0°C (46°F)
Dewpoint: 6.0°C (43°F) [RH = 87%]
Pressure (altimeter): 29.68 inches Hg (1005.0 mb)
Winds: from the SW (230 degrees) at 9 MPH (8 knots; 4.1 m/s)
Visibility: 6 or more miles (10+ km)
Ceiling: at least 12,000 feet AGL
Clouds: few clouds at 1700 feet AGL
scattered clouds at 5000 feet AGL
Weather: no significant weather observed at this time

METAR text: EICK 181100Z 22006KT 9999 FEW015 SCT100 07/06 Q1005 NOSIG
Conditions at: EICK (CORK ARPT/CORCAI, IE) observed 1100 UTC 18 January 2019
Temperature: 7.0°C (45°F)
Dewpoint: 6.0°C (43°F) [RH = 93%]
Pressure (altimeter): 29.68 inches Hg (1005.0 mb)
Winds: from the SW (220 degrees) at 7 MPH (6 knots; 3.1 m/s)
Visibility: 6 or more miles (10+ km)
Ceiling: at least 12,000 feet AGL
Clouds: few clouds at 1500 feet AGL
scattered clouds at 10000 feet AGL
Weather: no significant weather observed at this time

METAR text: EICK 181030Z 22007KT 9999 FEW015 SCT060 06/06 Q1005 NOSIG
Conditions at: EICK (CORK ARPT/CORCAI, IE) observed 1030 UTC 18 January 2019
Temperature: 6.0°C (43°F)
Dewpoint: 6.0°C (43°F) [RH = 100%]
Pressure (altimeter): 29.68 inches Hg (1005.0 mb)
Winds: from the SW (220 degrees) at 8 MPH (7 knots; 3.6 m/s)
Visibility: 6 or more miles (10+ km)
Ceiling: at least 12,000 feet AGL
Clouds: few clouds at 1500 feet AGL
scattered clouds at 6000 feet AGL
Weather: no significant weather observed at this time

METAR text: EICK 181000Z 22007KT 9999 FEW001 SCT060 05/05 Q1005 NOSIG
Conditions at: EICK (CORK ARPT/CORCAI, IE) observed 1000 UTC 18 January 2019
Temperature: 5.0°C (41°F)
Dewpoint: 5.0°C (41°F) [RH = 100%]
Pressure (altimeter): 29.68 inches Hg (1005.0 mb)
Winds: from the SW (220 degrees) at 8 MPH (7 knots; 3.6 m/s)
Visibility: 6 or more miles (10+ km)
Ceiling: at least 12,000 feet AGL
Clouds: few clouds at 100 feet AGL
scattered clouds at 6000 feet AGL
Weather: no significant weather observed at this time

METAR text: EICK 180930Z 22005KT 9999 FEW001 SCT070 04/04 Q1005 NOSIG
Conditions at: EICK (CORK ARPT/CORCAI, IE) observed 0930 UTC 18 January 2019
Temperature: 4.0°C (39°F)
Dewpoint: 4.0°C (39°F) [RH = 100%]
Pressure (altimeter): 29.68 inches Hg (1005.0 mb)
Winds: from the SW (220 degrees) at 6 MPH (5 knots; 2.6 m/s)
Visibility: 6 or more miles (10+ km)
Ceiling: at least 12,000 feet AGL
Clouds: few clouds at 100 feet AGL
scattered clouds at 7000 feet AGL
Weather: no significant weather observed at this time

METAR text: EICK 180900Z 22005KT 9999 FEW001 FEW017CB 03/03 Q1005 NOSIG
Conditions at: EICK (CORK ARPT/CORCAI, IE) observed 0900 UTC 18 January 2019
Temperature: 3.0°C (37°F)
Dewpoint: 3.0°C (37°F) [RH = 100%]
Pressure (altimeter): 29.68 inches Hg (1005.0 mb)
Winds: from the SW (220 degrees) at 6 MPH (5 knots; 2.6 m/s)
Visibility: 6 or more miles (10+ km)
Ceiling: at least 12,000 feet AGL
Clouds: few clouds at 100 feet AGL
few clouds at 1700 feet AGL
Weather: no significant weather observed at this time

METAR text: EICK 180830Z 23007KT 4000 BR FEW001 FEW017CB 03/03 Q1005 BECMG 9999
Conditions at: EICK (CORK ARPT/CORCAI, IE) observed 0830 UTC 18 January 2019
Temperature: 3.0°C (37°F)
Dewpoint: 3.0°C (37°F) [RH = 100%]
Pressure (altimeter): 29.68 inches Hg (1005.0 mb)
Winds: from the SW (230 degrees) at 8 MPH (7 knots; 3.6 m/s)
Visibility: 2.49 miles (4.01 km)
Ceiling: at least 12,000 feet AGL
Clouds: few clouds at 100 feet AGL
few clouds at 1700 feet AGL
Weather: BR  (mist)

METAR text: EICK 180800Z 23008KT 1800 BR MIFG FEW001 SCT080 03/03 Q1005 BECMG 9999
Conditions at: EICK (CORK ARPT/CORCAI, IE) observed 0800 UTC 18 January 2019
Temperature: 3.0°C (37°F)
Dewpoint: 3.0°C (37°F) [RH = 100%]
Pressure (altimeter): 29.68 inches Hg (1005.0 mb)
Winds: from the SW (230 degrees) at 9 MPH (8 knots; 4.1 m/s)
Visibility: 1.12 miles (1.80 km)
Ceiling: at least 12,000 feet AGL
Clouds: few clouds at 100 feet AGL
scattered clouds at 8000 feet AGL
Weather: BR MIFG  (mist, shallow fog)

METAR text: EICK 180730Z 22006KT 9999 MIFG FEW015 SCT060 03/03 Q1005 NOSIG
Conditions at: EICK (CORK ARPT/CORCAI, IE) observed 0730 UTC 18 January 2019
Temperature: 3.0°C (37°F)
Dewpoint: 3.0°C (37°F) [RH = 100%]
Pressure (altimeter): 29.68 inches Hg (1005.0 mb)
Winds: from the SW (220 degrees) at 7 MPH (6 knots; 3.1 m/s)
Visibility: 6 or more miles (10+ km)
Ceiling: at least 12,000 feet AGL
Clouds: few clouds at 1500 feet AGL
scattered clouds at 6000 feet AGL
Weather: MIFG  (shallow fog)

METAR text: EICK 180700Z 23008KT 9999 FEW015 BKN060 04/03 Q1005 NOSIG
Conditions at: EICK (CORK ARPT/CORCAI, IE) observed 0700 UTC 18 January 2019
Temperature: 4.0°C (39°F)
Dewpoint: 3.0°C (37°F) [RH = 93%]
Pressure (altimeter): 29.68 inches Hg (1005.0 mb)
Winds: from the SW (230 degrees) at 9 MPH (8 knots; 4.1 m/s)
Visibility: 6 or more miles (10+ km)
Ceiling: 6000 feet AGL
Clouds: few clouds at 1500 feet AGL
broken clouds at 6000 feet AGL
Weather: no significant weather observed at this time

METAR text: EICK 180630Z 22007KT 9999 FEW015 SCT060 04/03 Q1005 NOSIG
Conditions at: EICK (CORK ARPT/CORCAI, IE) observed 0630 UTC 18 January 2019
Temperature: 4.0°C (39°F)
Dewpoint: 3.0°C (37°F) [RH = 93%]
Pressure (altimeter): 29.68 inches Hg (1005.0 mb)
Winds: from the SW (220 degrees) at 8 MPH (7 knots; 3.6 m/s)
Visibility: 6 or more miles (10+ km)
Ceiling: at least 12,000 feet AGL
Clouds: few clouds at 1500 feet AGL
scattered clouds at 6000 feet AGL
Weather: no significant weather observed at this time

METAR text: EICK 180600Z 24007KT 9999 FEW012 SCT022 04/04 Q1005 NOSIG
Conditions at: EICK (CORK ARPT/CORCAI, IE) observed 0600 UTC 18 January 2019
Temperature: 4.0°C (39°F)
Dewpoint: 4.0°C (39°F) [RH = 100%]
Pressure (altimeter): 29.68 inches Hg (1005.0 mb)
Winds: from the WSW (240 degrees) at 8 MPH (7 knots; 3.6 m/s)
Visibility: 6 or more miles (10+ km)
Ceiling: at least 12,000 feet AGL
Clouds: few clouds at 1200 feet AGL
scattered clouds at 2200 feet AGL
Weather: no significant weather observed at this time

METAR text: EICK 180530Z 24006KT 9999 FEW008 BKN021 05/05 Q1005 NOSIG
Conditions at: EICK (CORK ARPT/CORCAI, IE) observed 0530 UTC 18 January 2019
Temperature: 5.0°C (41°F)
Dewpoint: 5.0°C (41°F) [RH = 100%]
Pressure (altimeter): 29.68 inches Hg (1005.0 mb)
Winds: from the WSW (240 degrees) at 7 MPH (6 knots; 3.1 m/s)
Visibility: 6 or more miles (10+ km)
Ceiling: 2100 feet AGL
Clouds: few clouds at 800 feet AGL
broken clouds at 2100 feet AGL
Weather: no significant weather observed at this time

METAR text: EICK 180500Z 24009KT 9999 FEW008 BKN022 06/06 Q1005 NOSIG
Conditions at: EICK (CORK ARPT/CORCAI, IE) observed 0500 UTC 18 January 2019
Temperature: 6.0°C (43°F)
Dewpoint: 6.0°C (43°F) [RH = 100%]
Pressure (altimeter): 29.68 inches Hg (1005.0 mb)
Winds: from the WSW (240 degrees) at 10 MPH (9 knots; 4.6 m/s)
Visibility: 6 or more miles (10+ km)
Ceiling: 2200 feet AGL
Clouds: few clouds at 800 feet AGL
broken clouds at 2200 feet AGL
Weather: no significant weather observed at this time

METAR text: EICK 180430Z 25009KT 9999 FEW003 SCT080 06/06 Q1005 NOSIG
Conditions at: EICK (CORK ARPT/CORCAI, IE) observed 0430 UTC 18 January 2019
Temperature: 6.0°C (43°F)
Dewpoint: 6.0°C (43°F) [RH = 100%]
Pressure (altimeter): 29.68 inches Hg (1005.0 mb)
Winds: from the WSW (250 degrees) at 10 MPH (9 knots; 4.6 m/s)
Visibility: 6 or more miles (10+ km)
Ceiling: at least 12,000 feet AGL
Clouds: few clouds at 300 feet AGL
scattered clouds at 8000 feet AGL
Weather: no significant weather observed at this time

METAR text: EICK 180400Z 23011KT 9999 BKN003 07/07 Q1005 NOSIG
Conditions at: EICK (CORK ARPT/CORCAI, IE) observed 0400 UTC 18 January 2019
Temperature: 7.0°C (45°F)
Dewpoint: 7.0°C (45°F) [RH = 100%]
Pressure (altimeter): 29.68 inches Hg (1005.0 mb)
Winds: from the SW (230 degrees) at 13 MPH (11 knots; 5.7 m/s)
Visibility: 6 or more miles (10+ km)
Ceiling: 300 feet AGL
Clouds: broken clouds at 300 feet AGL
Weather: no significant weather observed at this time

METAR text: EICK 180330Z 15011KT 5000 -RA BKN004 07/07 Q1005 NOSIG
Conditions at: EICK (CORK ARPT/CORCAI, IE) observed 0330 UTC 18 January 2019
Temperature: 7.0°C (45°F)
Dewpoint: 7.0°C (45°F) [RH = 100%]
Pressure (altimeter): 29.68 inches Hg (1005.0 mb)
Winds: from the SSE (150 degrees) at 13 MPH (11 knots; 5.7 m/s)
Visibility: 3 miles ( 5 km)
Ceiling: 400 feet AGL
Clouds: broken clouds at 400 feet AGL
Weather: -RA  (light rain)

METAR text: EICK 180300Z 17016KT 5000 -RA BKN004 07/07 Q1006 NOSIG
Conditions at: EICK (CORK ARPT/CORCAI, IE) observed 0300 UTC 18 January 2019
Temperature: 7.0°C (45°F)
Dewpoint: 7.0°C (45°F) [RH = 100%]
Pressure (altimeter): 29.70 inches Hg (1006.0 mb)
Winds: from the S (170 degrees) at 18 MPH (16 knots; 8.2 m/s)
Visibility: 3 miles ( 5 km)
Ceiling: 400 feet AGL
Clouds: broken clouds at 400 feet AGL
Weather: -RA  (light rain)

METAR text: EICK 180230Z 17018KT 6000 -RA BKN004 06/06 Q1007 NOSIG
Conditions at: EICK (CORK ARPT/CORCAI, IE) observed 0230 UTC 18 January 2019
Temperature: 6.0°C (43°F)
Dewpoint: 6.0°C (43°F) [RH = 100%]
Pressure (altimeter): 29.73 inches Hg (1007.0 mb)
Winds: from the S (170 degrees) at 21 MPH (18 knots; 9.3 m/s)
Visibility: 4 miles ( 6 km)
Ceiling: 400 feet AGL
Clouds: broken clouds at 400 feet AGL
Weather: -RA  (light rain)

METAR text: EICK 180200Z 16016KT 6000 -RA BKN004 BKN008 06/06 Q1008 NOSIG
Conditions at: EICK (CORK ARPT/CORCAI, IE) observed 0200 UTC 18 January 2019
Temperature: 6.0°C (43°F)
Dewpoint: 6.0°C (43°F) [RH = 100%]
Pressure (altimeter): 29.76 inches Hg (1008.0 mb)
Winds: from the SSE (160 degrees) at 18 MPH (16 knots; 8.2 m/s)
Visibility: 4 miles ( 6 km)
Ceiling: 400 feet AGL
Clouds: broken clouds at 400 feet AGL
broken clouds at 800 feet AGL
Weather: -RA  (light rain)

METAR text: EICK 180130Z 16017KT 7000 -RA BKN005 BKN010 06/05 Q1009 NOSIG
Conditions at: EICK (CORK ARPT/CORCAI, IE) observed 0130 UTC 18 January 2019
Temperature: 6.0°C (43°F)
Dewpoint: 5.0°C (41°F) [RH = 93%]
Pressure (altimeter): 29.79 inches Hg (1009.0 mb)
Winds: from the SSE (160 degrees) at 20 MPH (17 knots; 8.7 m/s)
Visibility: 4 miles ( 7 km)
Ceiling: 500 feet AGL
Clouds: broken clouds at 500 feet AGL
broken clouds at 1000 feet AGL
Weather: -RA  (light rain)

METAR text: EICK 180100Z 14016KT 8000 -RA BKN006 BKN012 05/05 Q1009 NOSIG
Conditions at: EICK (CORK ARPT/CORCAI, IE) observed 0100 UTC 18 January 2019
Temperature: 5.0°C (41°F)
Dewpoint: 5.0°C (41°F) [RH = 100%]
Pressure (altimeter): 29.79 inches Hg (1009.0 mb)
Winds: from the SE (140 degrees) at 18 MPH (16 knots; 8.2 m/s)
Visibility: 5 miles ( 8 km)
Ceiling: 600 feet AGL
Clouds: broken clouds at 600 feet AGL
broken clouds at 1200 feet AGL
Weather: -RA  (light rain)

METAR text: EICK 180030Z 16018KT 8000 -RA SCT012 BKN021 05/04 Q1010 BECMG BKN010
Conditions at: EICK (CORK ARPT/CORCAI, IE) observed 0030 UTC 18 January 2019
Temperature: 5.0°C (41°F)
Dewpoint: 4.0°C (39°F) [RH = 93%]
Pressure (altimeter): 29.82 inches Hg (1010.0 mb)
Winds: from the SSE (160 degrees) at 21 MPH (18 knots; 9.3 m/s)
Visibility: 5 miles ( 8 km)
Ceiling: 2100 feet AGL
Clouds: scattered clouds at 1200 feet AGL
broken clouds at 2100 feet AGL
Weather: -RA  (light rain)

Forecast for: EICK (CORK ARPT/CORCAI, IE)
Text: TAF EICK 191100Z 1912/2012 30008KT 9999 FEW015 SCT030
Forecast period: 1200 UTC 19 January 2019 to 0400 UTC 20 January 2019
Forecast type: FROM: standard forecast or significant change
Winds: from the WNW (300 degrees) at 9 MPH (8 knots; 4.1 m/s)
Visibility: 6 or more miles 10+ km)
Ceiling: at least 12,000 feet AGL
Clouds: few clouds at 1500 feet AGL
scattered clouds at 3000 feet AGL
Weather: no significant weather forecast for this period
Text: PROB30
Forecast period: 2100 UTC 19 January 2019 to 0000 UTC 20 January 2019
Forecast type: TEMPORARY: The following changes expected for less than half the time period
Visibility: 1.86 miles (2.99 km)
Ceiling: 300 feet AGL
Clouds: broken clouds at 300 feet AGL
Weather: BR  (mist)
Text: TEMPO 1921/1924 3000 BR BKN003
Forecast period: 0400 to 0900 UTC 20 January 2019
Forecast type: BECOMING: Conditions expected to become as follows by 0600 UTC 20 January 2019
Winds: from the NNW (340 degrees) at 15 MPH (13 knots; 6.7 m/s)
Visibility: 6 or more miles 10+ km)
Ceiling: 1500 feet AGL
Clouds: scattered clouds at 800 feet AGL
broken clouds at 1500 feet AGL
Weather: -RA  (light rain)
Text: BECMG 2004/2006 34013KT -RA SCT008 BKN015
Forecast period: 0400 to 0600 UTC 20 January 2019
Forecast type: TEMPORARY: The following changes expected for less than half the time period
Visibility: missing
Ceiling: 800 feet AGL
Clouds: broken clouds at 800 feet AGL
Weather: no significant weather forecast for this period
Text: TEMPO 2004/2006 BKN008
Forecast period: 0900 to 1200 UTC 20 January 2019
Forecast type: BECOMING: Conditions expected to become as follows by 1200 UTC 20 January 2019
Winds: from the NNW (340 degrees) at 18 MPH (16 knots; 8.2 m/s)
gusting to 30 MPH (26 knots; 13.4 m/s)
Visibility: 6 or more miles 10+ km)
Ceiling: 2500 feet AGL
Clouds: scattered clouds at 1800 feet AGL
broken clouds at 2500 feet AGL
Weather: -RA  (light rain)